Decoded Metar for CYIO (POND INLET in NU, CANADA) (IATA:YIO) | Meteo·Mobile Aviation Weather
aviador You're here:

CYIO Decoded Metar

POND INLET in NU, CANADA
Report Time2019-02-22 03:22:00
UTC Time2019-02-22 03:44:33
Flight Rules mvfr MVFR
Wind180° at 06 kt
W.Decomp.*RWY 20: 5.6 kt HW 2.2 kt RCW
W.Rank180° ranks 2
Current wind is above 180° avg. (5.7)
Visibility9999 m
Phenomena:N/A
Clouds:Overcast 025 Hf
Expected CloudBase > 1,200 ft AGL from Temp-Dew spread
Ceiling2,500 ft
Temp-35°C (ISA -50)
Dew Point-38°C (74% RH)
AAT-41.1°C
QNH995 hPa
Density Alt-5,768 ft
Elevation187 ft
Report Wrong Elevation
Raw Report
SPECI CYIO 220322Z AUTO 18006KT 7SM OVC025 M35/M38 A2938 RMK SLP963=

Extra information for CYIO:More info

Metar Taf Metar & Taf Last 4 Metars F.Rules Stats Wind Profile Meteogram Temp Stats Airport Information Weather charts Add Link Nearby VenuesMetar ALERT Operation Metar Decoded Social comments